Time;durP1;ratioP1;P1;durP2;ratioP2;P2;SDS_P1;SDS_P2;PMS_P1;PMS_P2;Temp;Humidity;BMP_temperature;BMP_pressure;BME280_temperature;BME280_humidity;BME280_pressure;Samples;Min_cycle;Max_cycle;Signal;HPM_P1;HPM_P2
2022/11/23 00:01:17;;;;;;;1.60;1.50;;;8.50;68.40;;;;;;5017075;28;20044;-77
2022/11/23 00:03:45;;;;;;;1.48;1.38;;;8.50;68.30;;;;;;5016032;28;20407;-78
2022/11/23 00:06:11;;;;;;;1.38;1.25;;;8.50;68.30;;;;;;5014237;28;20554;-77
2022/11/23 00:08:38;;;;;;;1.00;0.90;;;8.50;68.30;;;;;;5016100;28;20167;-79
2022/11/23 00:11:04;;;;;;;3.28;1.00;;;8.50;68.30;;;;;;5016484;28;20130;-78
2022/11/23 00:13:30;;;;;;;1.40;1.30;;;8.50;68.20;;;;;;5014579;28;20045;-78
2022/11/23 00:15:56;;;;;;;3.28;1.33;;;8.50;68.20;;;;;;5016927;28;20034;-78
2022/11/23 00:18:22;;;;;;;1.13;1.10;;;8.50;68.10;;;;;;5017738;28;20547;-78
2022/11/23 00:20:48;;;;;;;1.50;1.40;;;8.50;68.10;;;;;;5021821;28;20037;-80
2022/11/23 00:23:13;;;;;;;1.85;1.40;;;8.50;68.10;;;;;;5015451;28;20034;-79
2022/11/23 00:25:39;;;;;;;2.33;1.50;;;8.50;68.10;;;;;;5016192;28;20029;-78
2022/11/23 00:28:06;;;;;;;1.30;1.20;;;8.50;68.20;;;;;;5014539;28;20520;-78
2022/11/23 00:30:32;;;;;;;1.33;1.23;;;8.50;68.20;;;;;;5014935;28;20030;-78
2022/11/23 00:32:58;;;;;;;1.42;1.33;;;8.50;68.20;;;;;;4981951;28;20056;-79
2022/11/23 00:35:24;;;;;;;1.60;1.50;;;8.50;68.20;;;;;;5014527;28;20040;-76
2022/11/23 00:37:50;;;;;;;1.70;1.60;;;8.50;68.20;;;;;;5016564;28;20404;-76
2022/11/23 00:40:16;;;;;;;1.63;1.50;;;8.50;68.30;;;;;;5015195;28;20042;-77
2022/11/23 00:42:41;;;;;;;2.28;1.40;;;8.50;68.30;;;;;;5013028;28;20585;-77
2022/11/23 00:45:08;;;;;;;1.50;1.40;;;8.50;68.30;;;;;;5004799;28;20435;-77
2022/11/23 00:47:34;;;;;;;2.15;1.88;;;8.50;68.10;;;;;;5001478;28;20041;-77
2022/11/23 00:50:00;;;;;;;1.80;1.70;;;8.50;68.10;;;;;;5013344;28;20361;-77
2022/11/23 00:52:25;;;;;;;1.60;1.50;;;8.50;68.20;;;;;;5014798;28;20109;-77
2022/11/23 00:54:51;;;;;;;1.35;1.30;;;8.50;68.30;;;;;;4998929;28;20045;-77
2022/11/23 00:57:17;;;;;;;1.40;1.30;;;8.50;68.30;;;;;;5014088;28;20045;-77
2022/11/23 00:59:43;;;;;;;1.58;1.40;;;8.50;68.30;;;;;;5013128;28;20053;-77
2022/11/23 01:02:09;;;;;;;1.50;1.40;;;8.50;68.20;;;;;;5016025;28;20057;-77
2022/11/23 01:04:38;;;;;;;1.52;1.42;;;8.50;68.20;;;;;;5014344;28;20034;-77
2022/11/23 01:07:04;;;;;;;1.55;1.45;;;8.50;68.20;;;;;;4996949;28;20037;-77
2022/11/23 01:09:31;;;;;;;1.70;1.60;;;8.50;68.10;;;;;;5007037;28;20042;-77
2022/11/23 01:11:56;;;;;;;1.40;1.27;;;8.50;68.20;;;;;;4995426;28;20030;-77
2022/11/23 01:14:23;;;;;;;1.35;1.25;;;8.50;68.20;;;;;;5015210;28;20058;-77
2022/11/23 01:16:49;;;;;;;1.58;1.48;;;8.50;68.20;;;;;;4997345;28;20034;-77
2022/11/23 01:19:17;;;;;;;1.67;1.58;;;8.50;68.30;;;;;;5015159;28;20034;-77
2022/11/23 01:21:47;;;;;;;2.00;1.13;;;8.50;68.30;;;;;;5013238;28;20121;-77
2022/11/23 01:24:18;;;;;;;1.50;1.38;;;8.50;68.40;;;;;;5013292;28;20432;-77
2022/11/23 01:26:44;;;;;;;1.60;1.40;;;8.50;68.40;;;;;;4995782;28;20029;-77
2022/11/23 01:29:11;;;;;;;1.45;1.20;;;8.50;68.50;;;;;;5015659;28;20116;-78
2022/11/23 01:31:39;;;;;;;1.10;1.10;;;8.50;68.50;;;;;;5015839;28;20033;-77
2022/11/23 01:34:05;;;;;;;1.33;1.23;;;8.50;68.50;;;;;;4997292;28;20057;-78
2022/11/23 01:36:33;;;;;;;1.48;1.00;;;8.40;68.40;;;;;;4998104;28;20034;-78
2022/11/23 01:39:01;;;;;;;1.48;1.15;;;8.50;68.50;;;;;;5041155;28;20446;-78
2022/11/23 01:41:30;;;;;;;1.48;1.38;;;8.40;68.40;;;;;;5015058;28;20087;-78
2022/11/23 01:43:56;;;;;;;1.30;1.20;;;8.40;68.30;;;;;;4995757;28;20092;-78
2022/11/23 01:46:24;;;;;;;0.90;0.90;;;8.50;68.30;;;;;;4983125;28;20405;-78
2022/11/23 01:49:06;;;;;;;0.90;0.90;;;8.50;68.20;;;;;;5001451;28;20408;-76
2022/11/23 01:51:43;;;;;;;1.25;1.15;;;8.40;68.20;;;;;;5012507;28;20385;-78
2022/11/23 01:54:20;;;;;;;1.23;1.13;;;8.50;68.30;;;;;;5014392;28;20124;-78
2022/11/23 01:56:51;;;;;;;1.23;1.08;;;8.50;68.10;;;;;;5012992;28;20041;-78
2022/11/23 01:59:18;;;;;;;1.10;1.00;;;8.40;68.10;;;;;;4992973;28;20049;-76
2022/11/23 02:01:45;;;;;;;1.10;0.90;;;8.50;68.10;;;;;;4989997;28;20035;-76
2022/11/23 02:04:15;;;;;;;0.90;0.90;;;8.50;68.10;;;;;;4989879;28;20034;-78
2022/11/23 02:06:46;;;;;;;0.88;0.80;;;8.50;68.00;;;;;;4997116;28;20393;-78
2022/11/23 02:09:14;;;;;;;1.30;1.20;;;8.50;68.10;;;;;;4996992;28;20034;-78
2022/11/23 02:11:40;;;;;;;1.20;1.05;;;8.40;68.00;;;;;;4998142;28;20044;-78
2022/11/23 02:14:07;;;;;;;1.42;1.30;;;8.50;68.10;;;;;;5005960;28;20033;-78
2022/11/23 02:16:35;;;;;;;1.30;1.20;;;8.40;68.00;;;;;;5013173;28;20045;-78
2022/11/23 02:19:01;;;;;;;1.27;0.98;;;8.40;68.10;;;;;;5015193;28;20034;-77
2022/11/23 02:21:27;;;;;;;1.77;1.40;;;8.40;68.20;;;;;;5014128;28;20053;-78
2022/11/23 02:23:58;;;;;;;1.20;1.10;;;8.40;68.20;;;;;;5011782;28;20497;-79
2022/11/23 02:26:31;;;;;;;1.40;1.30;;;8.40;68.20;;;;;;4976715;28;20041;-77
2022/11/23 02:29:03;;;;;;;1.40;1.30;;;8.40;68.20;;;;;;5011846;28;20609;-78
2022/11/23 02:31:30;;;;;;;2.80;1.70;;;8.40;68.20;;;;;;5013577;28;20041;-78
2022/11/23 02:33:56;;;;;;;2.50;1.70;;;8.50;68.30;;;;;;5013146;28;20061;-78
2022/11/23 02:36:41;;;;;;;1.30;1.20;;;8.40;68.30;;;;;;5012756;28;20468;-78
2022/11/23 02:39:14;;;;;;;1.83;1.60;;;8.40;68.40;;;;;;5013799;28;20045;-77
2022/11/23 02:41:47;;;;;;;1.52;1.42;;;8.40;68.40;;;;;;5002176;28;20240;-78
2022/11/23 02:44:37;;;;;;;1.88;1.50;;;8.40;68.40;;;;;;5015159;28;20100;-78
2022/11/23 02:47:06;;;;;;;1.52;1.42;;;8.40;68.40;;;;;;5012417;28;20042;-78
2022/11/23 02:49:32;;;;;;;1.58;1.48;;;8.40;68.40;;;;;;5012332;28;20065;-78
2022/11/23 02:51:58;;;;;;;1.70;1.60;;;8.40;68.40;;;;;;5009771;28;20533;-78
2022/11/23 02:54:25;;;;;;;1.45;1.35;;;8.40;68.50;;;;;;5012753;28;20037;-79
2022/11/23 02:56:51;;;;;;;2.70;1.40;;;8.40;68.50;;;;;;5028215;28;20409;-79
2022/11/23 02:59:18;;;;;;;1.40;1.23;;;8.40;68.50;;;;;;5000376;28;20045;-78
2022/11/23 03:01:44;;;;;;;1.75;1.33;;;8.40;68.50;;;;;;5016381;28;20033;-77
2022/11/23 03:04:12;;;;;;;2.95;1.65;;;8.40;68.50;;;;;;5001849;28;20054;-77
2022/11/23 03:06:38;;;;;;;1.70;1.60;;;8.40;68.50;;;;;;4992705;28;20427;-76
2022/11/23 03:09:05;;;;;;;2.97;1.40;;;8.40;68.40;;;;;;5016139;28;20045;-77
2022/11/23 03:11:31;;;;;;;2.67;1.40;;;8.40;68.40;;;;;;5000161;28;20037;-76
2022/11/23 03:13:58;;;;;;;1.17;1.08;;;8.40;68.40;;;;;;5012545;28;20073;-78
2022/11/23 03:16:25;;;;;;;1.30;1.17;;;8.40;68.50;;;;;;5026690;28;20037;-78
2022/11/23 03:18:51;;;;;;;2.60;1.63;;;8.40;68.50;;;;;;5016689;28;20512;-79
2022/11/23 03:21:18;;;;;;;2.05;1.70;;;8.40;68.50;;;;;;5015547;28;20080;-78
2022/11/23 03:23:44;;;;;;;1.95;1.50;;;8.40;68.40;;;;;;5015182;28;20032;-78
2022/11/23 03:26:12;;;;;;;1.98;1.67;;;8.40;68.40;;;;;;4999925;28;20059;-76
2022/11/23 03:28:43;;;;;;;1.73;1.63;;;8.40;68.50;;;;;;5004272;28;20037;-75
2022/11/23 03:31:09;;;;;;;1.90;1.70;;;8.40;68.40;;;;;;5013100;28;20512;-76
2022/11/23 03:33:36;;;;;;;2.25;1.80;;;8.40;68.40;;;;;;5015080;28;20112;-76
2022/11/23 03:36:02;;;;;;;2.70;1.90;;;8.40;68.40;;;;;;4980134;28;20041;-74
2022/11/23 03:38:31;;;;;;;2.35;1.70;;;8.40;68.50;;;;;;5000741;28;20034;-77
2022/11/23 03:40:58;;;;;;;2.95;1.75;;;8.40;68.70;;;;;;4998247;28;20057;-80
2022/11/23 03:43:47;;;;;;;2.35;1.70;;;8.40;68.80;;;;;;5013655;28;20034;-76
2022/11/23 03:46:13;;;;;;;2.90;2.10;;;8.40;68.80;;;;;;5014007;28;20036;-77
2022/11/23 03:48:39;;;;;;;2.45;2.20;;;8.40;68.90;;;;;;5013550;28;20171;-76
2022/11/23 03:51:05;;;;;;;4.07;2.17;;;8.40;68.90;;;;;;5013018;28;20642;-77
2022/11/23 03:53:31;;;;;;;2.20;2.00;;;8.40;69.00;;;;;;5015939;28;20030;-78
2022/11/23 03:55:57;;;;;;;2.45;2.05;;;8.40;68.90;;;;;;4997192;28;20057;-78
2022/11/23 03:58:27;;;;;;;2.83;2.00;;;8.40;68.80;;;;;;5015364;28;20034;-76
2022/11/23 04:00:53;;;;;;;2.38;2.17;;;8.40;68.80;;;;;;5014849;28;20033;-76
2022/11/23 04:03:20;;;;;;;4.00;2.40;;;8.40;68.80;;;;;;5014721;28;20038;-76
2022/11/23 04:05:59;;;;;;;3.92;2.50;;;8.40;68.80;;;;;;5015903;28;20037;-77
2022/11/23 04:08:44;;;;;;;3.40;2.65;;;8.40;68.80;;;;;;4992221;28;20037;-75
2022/11/23 04:11:17;;;;;;;4.63;2.72;;;8.40;68.80;;;;;;5017160;28;20444;-76
2022/11/23 04:13:46;;;;;;;3.75;2.90;;;8.40;68.80;;;;;;5005560;28;20038;-75
2022/11/23 04:16:12;;;;;;;3.97;2.88;;;8.40;69.00;;;;;;4988150;28;20068;-75
2022/11/23 04:18:39;;;;;;;5.65;3.70;;;8.40;68.90;;;;;;5014856;28;20042;-77
2022/11/23 04:21:07;;;;;;;4.95;3.92;;;8.40;68.80;;;;;;5015212;28;20034;-76
2022/11/23 04:23:34;;;;;;;5.57;4.20;;;8.40;68.80;;;;;;5013486;28;20140;-77
2022/11/23 04:26:02;;;;;;;7.95;4.25;;;8.40;68.80;;;;;;5031030;28;20041;-76
2022/11/23 04:28:29;;;;;;;4.15;3.72;;;8.40;68.80;;;;;;5016432;28;20297;-76
2022/11/23 04:30:57;;;;;;;4.45;4.00;;;8.40;68.80;;;;;;5001953;28;20124;-75
2022/11/23 04:33:24;;;;;;;3.80;3.25;;;8.40;68.60;;;;;;5012872;28;20515;-73
2022/11/23 04:35:51;;;;;;;4.60;3.13;;;8.40;68.60;;;;;;5019633;28;20470;-77
2022/11/23 04:38:17;;;;;;;3.15;2.85;;;8.40;68.50;;;;;;4998561;28;20041;-76
2022/11/23 04:40:47;;;;;;;2.78;2.20;;;8.40;68.50;;;;;;5014163;28;20030;-79
2022/11/23 04:43:13;;;;;;;3.40;2.35;;;8.40;68.40;;;;;;5013196;28;20048;-80
2022/11/23 04:45:40;;;;;;;2.55;2.10;;;8.40;68.30;;;;;;5020025;28;20522;-77
2022/11/23 04:48:11;;;;;;;3.40;2.03;;;8.40;68.40;;;;;;4992198;28;20113;-77
2022/11/23 04:50:37;;;;;;;4.22;1.90;;;8.40;68.40;;;;;;5017683;28;20172;-76
2022/11/23 04:53:04;;;;;;;1.95;1.73;;;8.40;68.60;;;;;;5028798;28;20045;-76
2022/11/23 04:55:37;;;;;;;4.63;2.03;;;8.40;68.60;;;;;;5002792;28;20033;-77
2022/11/23 04:58:03;;;;;;;2.97;1.80;;;8.40;68.60;;;;;;5027631;28;20791;-77
2022/11/23 05:00:32;;;;;;;2.50;1.80;;;8.40;68.60;;;;;;5013162;28;20099;-77
2022/11/23 05:03:00;;;;;;;2.30;1.58;;;8.40;68.70;;;;;;5031126;28;20056;-77
2022/11/23 05:05:29;;;;;;;1.73;1.63;;;8.50;68.70;;;;;;4999185;28;20044;-79
2022/11/23 05:07:56;;;;;;;2.20;1.73;;;8.50;68.80;;;;;;5013417;28;20045;-76
2022/11/23 05:10:25;;;;;;;1.77;1.67;;;8.40;68.70;;;;;;5013507;28;20034;-78
2022/11/23 05:12:55;;;;;;;1.50;1.40;;;8.40;68.80;;;;;;4997010;28;20448;-76
2022/11/23 05:15:21;;;;;;;2.88;1.58;;;8.50;68.90;;;;;;4981330;28;20042;-77
2022/11/23 05:17:48;;;;;;;2.13;1.40;;;8.50;69.00;;;;;;4995670;28;20048;-77
2022/11/23 05:20:22;;;;;;;2.28;1.38;;;8.50;69.80;;;;;;4982784;28;20124;-77
2022/11/23 05:22:48;;;;;;;1.98;1.40;;;8.50;69.70;;;;;;4964748;28;20062;-78
2022/11/23 05:25:18;;;;;;;2.08;1.40;;;8.50;69.10;;;;;;4975886;28;20061;-77
2022/11/23 05:27:49;;;;;;;1.38;1.27;;;8.50;69.20;;;;;;5012185;28;20034;-77
2022/11/23 05:30:16;;;;;;;3.15;1.60;;;8.40;69.20;;;;;;5013246;28;20141;-78
2022/11/23 05:32:41;;;;;;;1.50;1.38;;;8.50;69.30;;;;;;5026600;28;20033;-78
2022/11/23 05:35:08;;;;;;;2.15;1.50;;;8.40;69.20;;;;;;4996077;28;20034;-78
2022/11/23 05:37:37;;;;;;;1.50;1.40;;;8.50;69.30;;;;;;4992620;28;20739;-78
2022/11/23 05:40:07;;;;;;;3.22;1.85;;;8.50;69.30;;;;;;5012625;28;20036;-77
2022/11/23 05:42:34;;;;;;;2.08;1.52;;;8.50;69.40;;;;;;5013939;28;20026;-78
2022/11/23 05:45:09;;;;;;;1.30;1.20;;;8.50;69.40;;;;;;5013917;28;20037;-78
2022/11/23 05:47:40;;;;;;;2.95;1.40;;;8.50;69.60;;;;;;5013981;28;20342;-78
2022/11/23 05:50:13;;;;;;;1.75;1.33;;;8.50;69.60;;;;;;4995063;28;20057;-78
2022/11/23 05:52:43;;;;;;;1.92;1.73;;;8.50;69.70;;;;;;5010265;28;20042;-80
2022/11/23 05:55:09;;;;;;;1.70;1.60;;;8.50;70.10;;;;;;5015598;28;20091;-80
2022/11/23 05:57:34;;;;;;;2.70;2.10;;;8.30;70.60;;;;;;5014995;28;20041;-80
2022/11/23 06:00:03;;;;;;;2.60;1.95;;;8.20;70.70;;;;;;5013935;28;20577;-79
2022/11/23 06:02:38;;;;;;;2.20;2.00;;;8.10;70.90;;;;;;5019243;28;20037;-81
2022/11/23 06:05:05;;;;;;;3.25;2.10;;;7.90;71.20;;;;;;5012171;28;20050;-81
2022/11/23 06:07:40;;;;;;;2.80;2.05;;;7.80;71.60;;;;;;5009378;28;20547;-80
2022/11/23 06:10:10;;;;;;;2.10;1.90;;;7.70;71.90;;;;;;5012140;28;20527;-72
2022/11/23 06:12:39;;;;;;;1.95;1.55;;;7.70;74.70;;;;;;5013046;28;20120;-73
2022/11/23 06:15:09;;;;;;;3.35;1.40;;;7.80;83.80;;;;;;5004105;28;20079;-73
2022/11/23 06:17:35;;;;;;;1.85;1.20;;;8.00;86.60;;;;;;5019508;28;20060;-74
2022/11/23 06:20:05;;;;;;;2.40;1.65;;;8.20;87.20;;;;;;5014299;28;20036;-73
2022/11/23 06:22:33;;;;;;;4.57;2.05;;;8.30;85.20;;;;;;4996162;28;20046;-74
2022/11/23 06:25:03;;;;;;;2.95;1.50;;;8.50;84.90;;;;;;5009569;28;20034;-81
2022/11/23 06:27:40;;;;;;;5.07;1.60;;;8.70;82.60;;;;;;5014669;28;20400;-80
2022/11/23 06:30:23;;;;;;;3.47;1.85;;;8.90;81.40;;;;;;4986945;28;20036;-81
2022/11/23 06:32:49;;;;;;;2.90;1.67;;;9.00;80.20;;;;;;4989358;28;20523;-81
2022/11/23 06:35:15;;;;;;;3.25;1.55;;;9.00;79.00;;;;;;5012168;28;20628;-80
2022/11/23 06:37:43;;;;;;;2.92;1.50;;;9.10;77.70;;;;;;5016427;28;20041;-80
2022/11/23 06:40:11;;;;;;;1.73;1.40;;;9.10;76.90;;;;;;4999848;28;20038;-80
2022/11/23 06:42:38;;;;;;;1.55;1.13;;;9.20;76.00;;;;;;4987474;28;20034;-80
2022/11/23 06:45:05;;;;;;;2.90;1.60;;;9.20;75.30;;;;;;5024052;28;20049;-81
2022/11/23 06:47:31;;;;;;;2.17;1.83;;;9.20;74.70;;;;;;5016997;28;20420;-81
2022/11/23 06:49:57;;;;;;;1.95;1.48;;;9.20;74.40;;;;;;5023970;28;20040;-81
2022/11/23 06:52:29;;;;;;;2.95;1.80;;;9.30;74.10;;;;;;5033149;28;20034;-80
2022/11/23 06:54:55;;;;;;;1.70;1.55;;;9.30;73.70;;;;;;5014045;28;20037;-80
2022/11/23 06:57:23;;;;;;;1.65;1.52;;;9.30;73.40;;;;;;5007114;28;20101;-80
2022/11/23 06:59:49;;;;;;;3.05;1.80;;;9.30;73.30;;;;;;4980044;28;20093;-81
2022/11/23 07:02:18;;;;;;;3.83;2.20;;;9.40;73.30;;;;;;5015330;28;20439;-80
2022/11/23 07:04:44;;;;;;;5.25;1.95;;;9.40;73.30;;;;;;5015293;28;20041;-80
2022/11/23 07:07:15;;;;;;;2.30;1.73;;;9.40;73.00;;;;;;5001320;28;20038;-80
2022/11/23 07:09:51;;;;;;;1.98;1.75;;;9.40;72.60;;;;;;4990648;28;20440;-80
2022/11/23 07:12:38;;;;;;;;;;;9.40;72.70;;;;;;5018486;28;20034;-80
2022/11/23 07:15:04;;;;;;;2.78;2.20;;;9.40;72.60;;;;;;5003404;28;19928;-80
2022/11/23 07:17:39;;;;;;;3.35;1.80;;;9.40;72.40;;;;;;5001249;28;20029;-80
2022/11/23 07:20:07;;;;;;;2.05;1.73;;;9.40;72.40;;;;;;5004782;28;20037;-80
2022/11/23 07:22:33;;;;;;;1.90;1.70;;;9.40;72.40;;;;;;5017165;28;20061;-80
2022/11/23 07:24:58;;;;;;;1.55;1.40;;;9.40;72.30;;;;;;5014967;28;20482;-80
2022/11/23 07:27:24;;;;;;;1.38;1.27;;;9.50;72.30;;;;;;5016680;28;20334;-80
2022/11/23 07:29:50;;;;;;;2.30;2.00;;;9.50;72.00;;;;;;4998984;28;20080;-79
2022/11/23 07:32:17;;;;;;;2.45;1.55;;;9.50;72.00;;;;;;5033352;28;20040;-81
2022/11/23 07:34:43;;;;;;;2.28;1.90;;;9.50;72.00;;;;;;5003456;28;20037;-81
2022/11/23 07:37:09;;;;;;;3.00;1.75;;;9.50;71.80;;;;;;5016254;28;20124;-81
2022/11/23 07:39:37;;;;;;;2.40;1.60;;;9.50;71.70;;;;;;4998568;28;20075;-80
2022/11/23 07:42:03;;;;;;;3.22;1.90;;;9.50;71.70;;;;;;5017324;28;20034;-80
2022/11/23 07:44:34;;;;;;;2.17;1.92;;;9.50;71.40;;;;;;5000283;28;20025;-81
2022/11/23 07:47:01;;;;;;;3.63;1.70;;;9.60;71.50;;;;;;5015896;28;20038;-80
2022/11/23 07:49:27;;;;;;;1.67;1.58;;;9.60;71.40;;;;;;4990297;28;20096;-80
2022/11/23 07:51:55;;;;;;;2.70;1.40;;;9.60;71.30;;;;;;4996614;28;20035;-80
2022/11/23 07:54:21;;;;;;;1.83;1.73;;;9.60;71.20;;;;;;5015259;28;20136;-80
2022/11/23 07:56:46;;;;;;;1.85;1.55;;;9.60;71.20;;;;;;4999641;28;20037;-81
2022/11/23 07:59:12;;;;;;;1.80;1.60;;;9.60;71.10;;;;;;5021492;28;20516;-78
2022/11/23 08:01:38;;;;;;;2.13;1.63;;;9.50;71.10;;;;;;5017537;28;20038;-80
2022/11/23 08:04:04;;;;;;;1.67;1.58;;;9.60;71.00;;;;;;5014881;28;20029;-80
2022/11/23 08:06:30;;;;;;;3.45;1.48;;;9.60;70.80;;;;;;5016932;28;20034;-79
2022/11/23 08:08:58;;;;;;;2.05;1.65;;;9.60;70.90;;;;;;5024639;28;20473;-78
2022/11/23 08:11:24;;;;;;;1.33;1.23;;;9.60;70.80;;;;;;5022710;28;20079;-80
2022/11/23 08:13:49;;;;;;;2.08;1.60;;;9.60;70.70;;;;;;5015528;28;20408;-80
2022/11/23 08:16:17;;;;;;;2.35;1.52;;;9.60;71.20;;;;;;5015592;28;20049;-80
2022/11/23 08:18:43;;;;;;;2.05;1.85;;;9.60;70.40;;;;;;5013990;28;20037;-80
2022/11/23 08:21:09;;;;;;;1.95;1.48;;;9.60;70.40;;;;;;5015816;28;20037;-80
2022/11/23 08:23:35;;;;;;;1.45;1.35;;;9.60;70.30;;;;;;4998409;28;20067;-80
2022/11/23 08:26:03;;;;;;;1.77;1.45;;;9.70;70.30;;;;;;5015273;28;20056;-80
2022/11/23 08:28:29;;;;;;;1.42;1.33;;;9.60;70.20;;;;;;5017237;28;20121;-80
2022/11/23 08:30:54;;;;;;;2.50;1.73;;;9.70;70.20;;;;;;5016248;28;20472;-80
2022/11/23 08:33:20;;;;;;;2.53;1.55;;;9.70;70.30;;;;;;5015957;28;20034;-80
2022/11/23 08:35:46;;;;;;;1.10;1.10;;;9.60;70.20;;;;;;5021708;28;20030;-80
2022/11/23 08:38:12;;;;;;;1.30;1.10;;;9.70;70.20;;;;;;5030906;28;20385;-80
2022/11/23 08:40:38;;;;;;;1.20;1.10;;;9.70;70.10;;;;;;5006051;28;20516;-80
2022/11/23 08:43:05;;;;;;;1.55;1.00;;;9.70;70.00;;;;;;5010506;28;20420;-80
2022/11/23 08:45:31;;;;;;;1.90;1.10;;;9.70;70.00;;;;;;5019316;28;20037;-80
2022/11/23 08:48:01;;;;;;;1.20;1.10;;;9.70;70.00;;;;;;5015070;28;20037;-80
2022/11/23 08:50:28;;;;;;;1.75;1.15;;;9.70;69.90;;;;;;5003517;28;20098;-81
2022/11/23 08:53:00;;;;;;;1.40;1.20;;;9.70;69.90;;;;;;5016720;28;20036;-81
2022/11/23 08:55:27;;;;;;;2.25;1.35;;;9.70;69.90;;;;;;4994052;28;20090;-82
2022/11/23 08:57:57;;;;;;;1.50;1.15;;;9.70;69.60;;;;;;5000926;28;20520;-80
2022/11/23 09:00:24;;;;;;;1.80;1.20;;;9.70;69.50;;;;;;5014639;28;20041;-80
2022/11/23 09:02:49;;;;;;;2.65;1.10;;;9.80;69.50;;;;;;5016635;28;20033;-81
2022/11/23 09:05:15;;;;;;;1.58;1.20;;;9.80;69.50;;;;;;5002554;28;20038;-81
2022/11/23 09:07:41;;;;;;;2.30;1.50;;;9.80;69.50;;;;;;5015732;28;20029;-80
2022/11/23 09:10:07;;;;;;;2.00;1.35;;;9.80;69.50;;;;;;4996389;28;20026;-80
2022/11/23 09:12:34;;;;;;;2.67;1.27;;;9.80;69.50;;;;;;5013890;28;20038;-80
2022/11/23 09:15:00;;;;;;;4.28;1.90;;;9.80;69.70;;;;;;5012358;28;20078;-79
2022/11/23 09:17:25;;;;;;;2.15;1.40;;;9.80;69.70;;;;;;5014899;28;20041;-81
2022/11/23 09:19:51;;;;;;;1.90;1.40;;;9.80;69.70;;;;;;4994867;28;20046;-80
2022/11/23 09:22:17;;;;;;;2.53;1.70;;;9.80;69.70;;;;;;5008488;28;20063;-80
2022/11/23 09:24:43;;;;;;;2.20;1.40;;;9.80;69.70;;;;;;5014053;28;20034;-80
2022/11/23 09:27:09;;;;;;;2.95;1.83;;;9.80;69.70;;;;;;5003902;28;20040;-78
2022/11/23 09:29:35;;;;;;;4.47;1.90;;;9.80;69.70;;;;;;4999439;28;20037;-80
2022/11/23 09:32:02;;;;;;;4.10;1.90;;;9.80;69.70;;;;;;5014550;28;20036;-80
2022/11/23 09:34:28;;;;;;;3.40;2.08;;;9.80;69.60;;;;;;5007319;28;20036;-79
2022/11/23 09:36:56;;;;;;;2.97;1.70;;;9.80;69.60;;;;;;5005581;28;20034;-80
2022/11/23 09:39:22;;;;;;;4.13;1.80;;;9.80;69.50;;;;;;4995334;28;20409;-79
2022/11/23 09:42:00;;;;;;;4.63;2.15;;;9.80;70.20;;;;;;5015603;28;20033;-79
2022/11/23 09:44:38;;;;;;;4.25;2.10;;;9.80;69.60;;;;;;5007444;28;20404;-80
2022/11/23 09:47:18;;;;;;;6.00;2.05;;;9.80;69.60;;;;;;4983983;28;20124;-80
2022/11/23 09:49:55;;;;;;;2.75;1.80;;;9.80;69.50;;;;;;4998032;28;20491;-80
2022/11/23 09:52:23;;;;;;;2.60;1.92;;;9.80;69.40;;;;;;4986969;28;20038;-80
2022/11/23 09:54:54;;;;;;;2.75;1.60;;;9.80;69.40;;;;;;4995057;28;20069;-79
2022/11/23 09:57:25;;;;;;;4.05;1.88;;;9.80;69.30;;;;;;5011602;28;20056;-79
2022/11/23 10:00:04;;;;;;;4.10;1.75;;;9.80;69.30;;;;;;5014514;28;20571;-79
2022/11/23 10:02:33;;;;;;;3.25;1.58;;;9.80;69.30;;;;;;4996354;28;20030;-80
2022/11/23 10:05:02;;;;;;;3.35;1.92;;;9.80;69.30;;;;;;5016715;28;20041;-80
2022/11/23 10:07:54;;;;;;;2.72;1.60;;;9.80;69.50;;;;;;5005654;28;20029;-80
2022/11/23 10:10:43;;;;;;;2.55;1.58;;;9.80;69.40;;;;;;5017434;28;20041;-79
2022/11/23 10:13:23;;;;;;;2.53;1.73;;;9.80;69.40;;;;;;5019466;28;20389;-80
2022/11/23 10:16:01;;;;;;;3.25;1.63;;;9.80;69.40;;;;;;5034927;28;20439;-79
2022/11/23 10:18:36;;;;;;;2.47;1.33;;;9.80;69.40;;;;;;5018846;28;20650;-80
2022/11/23 10:21:19;;;;;;;2.30;1.52;;;9.80;69.30;;;;;;5018558;28;20064;-78
2022/11/23 10:23:52;;;;;;;2.53;1.50;;;9.80;69.20;;;;;;5018864;28;20043;-78
2022/11/23 10:26:23;;;;;;;2.20;1.60;;;9.80;69.20;;;;;;5018967;28;20475;-78
2022/11/23 10:28:50;;;;;;;4.93;1.80;;;9.80;69.10;;;;;;5018946;28;20512;-79
2022/11/23 10:31:19;;;;;;;2.50;1.48;;;9.80;69.00;;;;;;5011405;28;20396;-79
2022/11/23 10:34:08;;;;;;;3.85;1.67;;;9.80;69.00;;;;;;5004496;28;20048;-80
2022/11/23 10:36:40;;;;;;;2.10;1.50;;;9.80;68.90;;;;;;5017618;28;20455;-80
2022/11/23 10:39:26;;;;;;;1.33;1.23;;;9.80;68.90;;;;;;4998648;28;20045;-80
2022/11/23 10:41:53;;;;;;;;;;;9.80;68.80;;;;;;4985808;28;20038;-78
2022/11/23 10:44:28;;;;;;;1.52;1.40;;;9.80;68.80;;;;;;5019297;28;19924;-78
2022/11/23 10:46:54;;;;;;;1.83;1.30;;;9.80;68.70;;;;;;5000765;28;20532;-79
2022/11/23 10:49:28;;;;;;;1.52;1.35;;;9.80;68.70;;;;;;5010300;28;20045;-80
2022/11/23 10:52:22;;;;;;;2.05;1.63;;;9.90;68.80;;;;;;5016388;28;20083;-80
2022/11/23 10:54:54;;;;;;;2.38;1.20;;;9.90;68.70;;;;;;5013487;28;20535;-80
2022/11/23 10:57:27;;;;;;;3.90;1.55;;;9.80;68.60;;;;;;5016130;28;20050;-78
2022/11/23 10:59:59;;;;;;;1.35;1.25;;;9.90;68.70;;;;;;5017220;28;20046;-78
2022/11/23 11:02:25;;;;;;;2.33;1.65;;;9.80;68.60;;;;;;5020046;28;20124;-81
2022/11/23 11:05:12;;;;;;;1.00;1.00;;;9.90;68.60;;;;;;5016670;28;20524;-79
2022/11/23 11:07:38;;;;;;;1.63;1.40;;;9.90;68.50;;;;;;5014035;28;20407;-80
2022/11/23 11:10:05;;;;;;;1.25;1.20;;;9.90;68.40;;;;;;5013151;28;20125;-80
2022/11/23 11:12:34;;;;;;;1.45;1.35;;;9.90;68.30;;;;;;5016585;28;20464;-79
2022/11/23 11:15:03;;;;;;;1.42;1.30;;;9.90;68.30;;;;;;5015886;28;20058;-79
2022/11/23 11:17:32;;;;;;;1.83;1.27;;;9.90;68.20;;;;;;5017826;28;20523;-79
2022/11/23 11:20:14;;;;;;;1.52;1.42;;;9.80;68.20;;;;;;5012523;28;20550;-80
2022/11/23 11:22:40;;;;;;;1.52;1.42;;;9.80;68.20;;;;;;5011973;28;20042;-80
2022/11/23 11:25:06;;;;;;;1.95;1.70;;;9.80;68.20;;;;;;5016724;28;20062;-79
2022/11/23 11:27:33;;;;;;;1.70;1.60;;;9.80;68.20;;;;;;5002643;28;20038;-79
2022/11/23 11:30:23;;;;;;;1.88;1.77;;;9.90;68.20;;;;;;4999696;28;20033;-79
2022/11/23 11:33:04;;;;;;;2.10;1.80;;;9.80;68.20;;;;;;5017776;28;20025;-79
2022/11/23 11:35:37;;;;;;;2.47;1.98;;;9.80;68.20;;;;;;5018513;28;20079;-79
2022/11/23 11:38:30;;;;;;;2.15;1.95;;;9.80;68.20;;;;;;5016796;28;20065;-79
2022/11/23 11:41:01;;;;;;;1.92;1.83;;;9.80;68.20;;;;;;5019243;28;20036;-78
2022/11/23 11:43:51;;;;;;;2.25;2.05;;;9.90;68.20;;;;;;5016164;28;20026;-80
2022/11/23 11:46:30;;;;;;;1.90;1.70;;;9.80;68.10;;;;;;4997081;28;20039;-81
2022/11/23 11:49:07;;;;;;;3.08;2.30;;;9.80;68.10;;;;;;5003832;28;20079;-79
2022/11/23 11:51:40;;;;;;;2.03;1.92;;;9.80;68.00;;;;;;5002433;28;20517;-80
2022/11/23 11:54:24;;;;;;;1.90;1.77;;;9.80;68.00;;;;;;5006932;28;20045;-79
2022/11/23 11:57:11;;;;;;;3.50;2.15;;;9.80;68.00;;;;;;5011602;28;20131;-80
2022/11/23 11:59:44;;;;;;;2.10;1.90;;;9.80;68.00;;;;;;5009265;28;20132;-80
2022/11/23 12:02:13;;;;;;;2.65;2.03;;;9.80;68.10;;;;;;5014062;28;20416;-78
2022/11/23 12:04:48;;;;;;;2.38;2.17;;;9.80;68.20;;;;;;4984575;28;20069;-78
2022/11/23 12:07:21;;;;;;;2.17;2.00;;;9.80;68.10;;;;;;4996848;28;20539;-77
2022/11/23 12:09:54;;;;;;;2.85;1.90;;;9.80;68.10;;;;;;4995328;28;20085;-78
2022/11/23 12:12:21;;;;;;;2.17;1.98;;;9.80;68.20;;;;;;5031085;28;20511;-77
2022/11/23 12:14:47;;;;;;;2.42;1.95;;;9.80;68.20;;;;;;5024898;28;20029;-78
2022/11/23 12:17:40;;;;;;;3.42;2.08;;;9.80;68.20;;;;;;5026669;28;20033;-77
2022/11/23 12:20:57;;;;;;;1.55;1.45;;;9.80;68.20;;;;;;5028878;28;20781;-77
2022/11/23 12:23:28;;;;;;;2.00;1.52;;;9.80;68.30;;;;;;4951193;29;20042;-79
2022/11/23 12:26:26;;;;;;;2.28;1.80;;;9.80;68.30;;;;;;4948684;28;20114;-78
2022/11/23 12:29:00;;;;;;;2.15;1.92;;;9.80;68.30;;;;;;4949290;28;20112;-78
2022/11/23 12:31:31;;;;;;;2.03;1.92;;;9.80;68.20;;;;;;4949802;29;20035;-78
2022/11/23 12:34:15;;;;;;;3.03;1.90;;;9.80;68.10;;;;;;4950386;29;20066;-77
2022/11/23 12:37:11;;;;;;;1.67;1.58;;;9.80;68.20;;;;;;4944760;29;20490;-78
2022/11/23 12:39:46;;;;;;;2.22;1.77;;;9.80;68.10;;;;;;4950727;28;20091;-78
2022/11/23 12:42:30;;;;;;;2.05;1.85;;;9.80;68.10;;;;;;4934544;29;20126;-77
2022/11/23 12:45:22;;;;;;;2.60;1.75;;;9.80;68.20;;;;;;4916598;29;20039;-80
2022/11/23 12:48:00;;;;;;;2.72;1.80;;;9.80;68.30;;;;;;4949966;29;20601;-79
2022/11/23 12:50:34;;;;;;;2.33;2.13;;;9.80;68.30;;;;;;4950313;29;20035;-78
2022/11/23 12:53:03;;;;;;;2.55;1.88;;;9.80;68.20;;;;;;4966195;28;20047;-79
2022/11/23 12:55:37;;;;;;;2.55;1.60;;;9.80;68.30;;;;;;4931806;29;20094;-77
2022/11/23 12:58:24;;;;;;;3.15;1.85;;;9.80;68.30;;;;;;4975360;28;20054;-79
2022/11/23 13:01:04;;;;;;;2.90;1.90;;;9.80;68.40;;;;;;4976674;28;20051;-78
2022/11/23 13:03:33;;;;;;;2.00;1.77;;;9.80;68.40;;;;;;5016969;28;20128;-78
2022/11/23 13:06:41;;;;;;;1.95;1.52;;;9.80;68.40;;;;;;5017170;28;20382;-78
2022/11/23 13:09:17;;;;;;;1.67;1.55;;;9.80;68.30;;;;;;5024313;28;20037;-78
2022/11/23 13:12:00;;;;;;;2.00;1.80;;;9.80;68.30;;;;;;5019961;28;20037;-80
2022/11/23 13:15:00;;;;;;;2.80;1.60;;;9.80;68.20;;;;;;5015381;28;20052;-80